Time;durP1;ratioP1;P1;durP2;ratioP2;P2;SDS_P1;SDS_P2;PMS_P1;PMS_P2;Temp;Humidity;BMP_temperature;BMP_pressure;BME280_temperature;BME280_humidity;BME280_pressure;Samples;Min_cycle;Max_cycle;Signal;HPM_P1;HPM_P2
2022/07/10 00:01:44;;;;;;;;;;;;;;;14.82;63.18;102722.69;5083993;28;19920;-61
2022/07/10 00:04:09;;;;;;;;;;;;;;;14.81;63.55;102727.19;5086101;28;19938;-61
2022/07/10 00:06:35;;;;;;;;;;;;;;;14.79;63.62;102726.50;5079698;28;21689;-61
2022/07/10 00:09:00;;;;;;;;;;;;;;;14.79;63.44;102726.50;5083329;28;20414;-61
2022/07/10 00:11:25;;;;;;;;;;;;;;;14.80;63.71;102724.66;5082838;28;19942;-61
2022/07/10 00:13:50;;;;;;;;;;;;;;;14.81;63.29;102718.31;5082223;28;19912;-61
2022/07/10 00:16:15;;;;;;;;;;;;;;;14.82;63.53;102717.31;5081330;28;19964;-61
2022/07/10 00:18:41;;;;;;;;;;;;;;;14.83;63.62;102710.97;5084186;28;19931;-61
2022/07/10 00:21:07;;;;;;;;;;;;;;;14.82;63.74;102712.81;5083017;28;20010;-61
2022/07/10 00:23:32;;;;;;;;;;;;;;;14.84;63.87;102707.31;5083609;28;19920;-61
2022/07/10 00:25:57;;;;;;;;;;;;;;;14.82;63.84;102704.78;5085598;28;19912;-62
2022/07/10 00:28:23;;;;;;;;;;;;;;;14.78;64.20;102706.09;5085399;28;19919;-61
2022/07/10 00:30:48;;;;;;;;;;;;;;;14.71;64.17;102707.69;5085699;28;19912;-61
2022/07/10 00:33:13;;;;;;;;;;;;;;;14.63;64.59;102704.94;5081837;28;19951;-61
2022/07/10 00:35:38;;;;;;;;;;;;;;;14.55;64.62;102697.66;5075745;28;19912;-61
2022/07/10 00:38:03;;;;;;;;;;;;;;;14.47;65.17;102710.13;5084548;28;19955;-61
2022/07/10 00:40:29;;;;;;;;;;;;;;;14.37;65.37;102703.94;5078173;28;19920;-61
2022/07/10 00:42:54;;;;;;;;;;;;;;;14.25;65.65;102698.81;5080469;28;20276;-61
2022/07/10 00:45:19;;;;;;;;;;;;;;;14.18;66.20;102699.56;5080397;28;19942;-61
2022/07/10 00:47:44;;;;;;;;;;;;;;;14.15;66.31;102695.31;5079321;28;19951;-61
2022/07/10 00:50:11;;;;;;;;;;;;;;;14.15;66.60;102689.13;5079836;28;19923;-61
2022/07/10 00:52:38;;;;;;;;;;;;;;;14.13;66.91;102693.78;5078047;28;19920;-61
2022/07/10 00:55:04;;;;;;;;;;;;;;;14.08;67.31;102694.25;5077701;28;19951;-61
2022/07/10 00:57:29;;;;;;;;;;;;;;;14.03;67.93;102685.00;5075610;28;19951;-61
2022/07/10 00:59:54;;;;;;;;;;;;;;;13.98;68.18;102680.09;5079013;28;20272;-62
2022/07/10 01:02:20;;;;;;;;;;;;;;;13.90;68.31;102680.00;5087959;28;20319;-60
2022/07/10 01:04:45;;;;;;;;;;;;;;;13.81;68.66;102671.03;5077025;28;19958;-61
2022/07/10 01:07:10;;;;;;;;;;;;;;;13.70;69.20;102663.22;5083079;28;19969;-61
2022/07/10 01:09:36;;;;;;;;;;;;;;;13.67;69.48;102662.66;5084880;28;19923;-61
2022/07/10 01:12:02;;;;;;;;;;;;;;;13.63;69.46;102667.47;5087554;28;19993;-61
2022/07/10 01:14:27;;;;;;;;;;;;;;;13.54;69.52;102666.47;5087423;28;19931;-61
2022/07/10 01:16:53;;;;;;;;;;;;;;;13.52;69.95;102659.59;5081326;28;19919;-61
2022/07/10 01:19:19;;;;;;;;;;;;;;;13.52;69.90;102655.13;5080863;28;19923;-61
2022/07/10 01:21:44;;;;;;;;;;;;;;;13.57;69.74;102668.84;5086376;28;19916;-61
2022/07/10 01:24:09;;;;;;;;;;;;;;;13.59;69.94;102661.56;5087182;28;19912;-61
2022/07/10 01:26:35;;;;;;;;;;;;;;;13.64;69.40;102663.81;5087520;28;19916;-61
2022/07/10 01:29:05;;;;;;;;;;;;;;;13.66;69.61;102672.50;5087341;28;19938;-61
2022/07/10 01:31:30;;;;;;;;;;;;;;;13.66;70.01;102667.16;5087240;28;20430;-61
2022/07/10 01:33:56;;;;;;;;;;;;;;;13.63;69.80;102673.63;5085967;28;19912;-61
2022/07/10 01:36:22;;;;;;;;;;;;;;;13.57;70.38;102673.34;5083359;28;19920;-60
2022/07/10 01:38:47;;;;;;;;;;;;;;;13.43;70.30;102671.16;5088226;28;19923;-61
2022/07/10 01:41:13;;;;;;;;;;;;;;;13.34;70.86;102672.88;5083006;28;19915;-61
2022/07/10 01:43:42;;;;;;;;;;;;;;;13.31;70.67;102668.69;5078748;28;19920;-61
2022/07/10 01:46:07;;;;;;;;;;;;;;;13.31;71.04;102667.84;5081037;28;19954;-61
2022/07/10 01:48:32;;;;;;;;;;;;;;;13.30;70.98;102671.50;5080189;28;19916;-61
2022/07/10 01:50:57;;;;;;;;;;;;;;;13.31;71.22;102660.66;5084122;28;19916;-61
2022/07/10 01:53:23;;;;;;;;;;;;;;;13.32;71.34;102661.50;5082305;28;19922;-61
2022/07/10 01:55:48;;;;;;;;;;;;;;;13.33;70.92;102666.69;5082604;28;20367;-61
2022/07/10 01:58:13;;;;;;;;;;;;;;;13.35;70.69;102663.88;5077221;28;19923;-61
2022/07/10 02:00:39;;;;;;;;;;;;;;;13.36;71.04;102654.91;5078674;28;19918;-61
2022/07/10 02:05:48;;;;;;;;;;;;;;;13.31;71.22;102658.00;5081313;28;20657;-61
2022/07/10 02:08:13;;;;;;;;;;;;;;;13.28;71.32;102644.91;5084028;28;20007;-61
2022/07/10 02:10:38;;;;;;;;;;;;;;;13.26;71.46;102649.56;5084063;28;19988;-61
2022/07/10 02:13:03;;;;;;;;;;;;;;;13.22;71.54;102642.84;5083692;28;19915;-61
2022/07/10 02:15:28;;;;;;;;;;;;;;;13.15;71.85;102656.88;5086288;28;20032;-61
2022/07/10 02:17:54;;;;;;;;;;;;;;;13.07;71.70;102660.25;5083606;28;19927;-61
2022/07/10 02:20:19;;;;;;;;;;;;;;;12.99;71.82;102654.75;5080996;28;20015;-61
2022/07/10 02:22:44;;;;;;;;;;;;;;;12.93;72.35;102658.00;5076381;28;20006;-61
2022/07/10 02:25:09;;;;;;;;;;;;;;;12.86;72.57;102660.41;5080713;28;19957;-61
2022/07/10 02:27:35;;;;;;;;;;;;;;;12.76;72.51;102659.56;5086564;28;19925;-61
2022/07/10 02:30:00;;;;;;;;;;;;;;;12.69;73.01;102661.09;5088480;28;19915;-61
2022/07/10 02:32:25;;;;;;;;;;;;;;;12.64;73.26;102660.66;5083289;28;19916;-61
2022/07/10 02:34:50;;;;;;;;;;;;;;;12.63;73.15;102651.84;5081650;28;19912;-61
2022/07/10 02:37:16;;;;;;;;;;;;;;;12.60;73.34;102656.59;5079308;28;20291;-61
2022/07/10 02:39:41;;;;;;;;;;;;;;;12.58;73.69;102654.06;5066401;28;20280;-61
2022/07/10 02:42:06;;;;;;;;;;;;;;;12.59;73.98;102652.25;5080559;28;20403;-61
2022/07/10 02:44:31;;;;;;;;;;;;;;;12.59;74.27;102652.25;5086554;28;19923;-61
2022/07/10 02:46:56;;;;;;;;;;;;;;;12.60;74.86;102652.13;5085026;28;19912;-61
2022/07/10 02:49:22;;;;;;;;;;;;;;;12.62;74.97;102647.47;5083706;28;19927;-61
2022/07/10 02:51:47;;;;;;;;;;;;;;;12.62;75.12;102647.47;5081773;28;19916;-61
2022/07/10 02:54:12;;;;;;;;;;;;;;;12.64;75.14;102636.69;5082946;28;20609;-61
2022/07/10 02:56:37;;;;;;;;;;;;;;;12.65;75.33;102638.38;5083602;28;19919;-61
2022/07/10 02:59:02;;;;;;;;;;;;;;;12.65;75.72;102628.53;5083011;28;20294;-60
2022/07/10 03:01:28;;;;;;;;;;;;;;;12.63;75.75;102635.84;5079821;28;19918;-61
2022/07/10 03:03:53;;;;;;;;;;;;;;;12.61;75.71;102626.31;5086793;28;19962;-61
2022/07/10 03:06:18;;;;;;;;;;;;;;;12.58;75.91;102626.59;5080218;28;20352;-61
2022/07/10 03:08:43;;;;;;;;;;;;;;;12.51;75.87;102636.97;5078393;28;19971;-61
2022/07/10 03:11:08;;;;;;;;;;;;;;;12.39;76.14;102635.41;5081969;28;19916;-61
2022/07/10 03:13:34;;;;;;;;;;;;;;;12.28;76.08;102632.88;5080947;28;19911;-61
2022/07/10 03:15:59;;;;;;;;;;;;;;;12.20;76.27;102638.03;5085571;28;19937;-61
2022/07/10 03:18:24;;;;;;;;;;;;;;;12.16;76.62;102636.66;5077408;28;20418;-61
2022/07/10 03:20:49;;;;;;;;;;;;;;;12.17;76.48;102638.31;5082407;28;19962;-61
2022/07/10 03:23:14;;;;;;;;;;;;;;;12.16;76.52;102636.66;5079794;28;20021;-61
2022/07/10 03:25:39;;;;;;;;;;;;;;;12.18;76.83;102634.69;5081628;28;19911;-61
2022/07/10 03:28:05;;;;;;;;;;;;;;;12.17;77.03;102636.50;5080268;28;20434;-61
2022/07/10 03:30:30;;;;;;;;;;;;;;;12.17;77.09;102635.66;5079452;28;20034;-61
2022/07/10 03:32:55;;;;;;;;;;;;;;;12.17;77.11;102628.50;5076243;28;19966;-61
2022/07/10 03:35:20;;;;;;;;;;;;;;;12.20;77.27;102627.41;5085273;28;19920;-61
2022/07/10 03:37:45;;;;;;;;;;;;;;;12.22;77.27;102623.59;5078649;28;19919;-61
2022/07/10 03:40:11;;;;;;;;;;;;;;;12.25;77.69;102619.81;5077807;28;19920;-61
2022/07/10 03:42:36;;;;;;;;;;;;;;;12.26;77.48;102618.84;5082991;28;20393;-61
2022/07/10 03:45:01;;;;;;;;;;;;;;;12.28;77.36;102630.19;5078913;28;19918;-61
2022/07/10 03:47:26;;;;;;;;;;;;;;;12.31;77.68;102620.09;5085173;28;20367;-61
2022/07/10 03:49:52;;;;;;;;;;;;;;;12.32;77.42;102618.28;5084217;28;19912;-61
2022/07/10 03:52:17;;;;;;;;;;;;;;;12.32;77.76;102616.47;5077668;28;20376;-61
2022/07/10 03:54:42;;;;;;;;;;;;;;;12.31;77.49;102625.44;5077494;28;19938;-61
2022/07/10 03:59:51;;;;;;;;;;;;;;;12.38;77.64;102620.38;5077137;28;19966;-61
2022/07/10 04:02:16;;;;;;;;;;;;;;;12.39;77.82;102616.75;5081785;28;19996;-60
2022/07/10 04:04:41;;;;;;;;;;;;;;;12.39;77.82;102622.91;5078110;28;19923;-61
2022/07/10 04:07:06;;;;;;;;;;;;;;;12.43;78.07;102622.63;5076642;28;20004;-61
2022/07/10 04:09:32;;;;;;;;;;;;;;;12.45;77.95;102628.69;5077708;28;19919;-61
2022/07/10 04:11:57;;;;;;;;;;;;;;;12.45;78.35;102615.38;5077855;28;20307;-61
2022/07/10 04:14:22;;;;;;;;;;;;;;;12.44;78.65;102603.88;5077544;28;19927;-61
2022/07/10 04:16:47;;;;;;;;;;;;;;;12.41;79.08;102604.13;5084548;28;19915;-61
2022/07/10 04:19:12;;;;;;;;;;;;;;;12.39;79.40;102612.25;5082004;28;19943;-61
2022/07/10 04:21:38;;;;;;;;;;;;;;;12.42;79.22;102611.13;5079620;28;19938;-61
2022/07/10 04:24:03;;;;;;;;;;;;;;;12.48;79.01;102617.75;5077871;28;19920;-61
2022/07/10 04:26:29;;;;;;;;;;;;;;;12.51;79.29;102609.47;5086312;28;19918;-61
2022/07/10 04:28:54;;;;;;;;;;;;;;;12.55;79.17;102622.38;5076329;28;19912;-61
2022/07/10 04:31:19;;;;;;;;;;;;;;;12.58;79.23;102618.59;5080139;28;20666;-61
2022/07/10 04:33:44;;;;;;;;;;;;;;;12.59;79.83;102622.94;5077915;28;19916;-61
2022/07/10 04:36:09;;;;;;;;;;;;;;;12.61;80.32;102621.81;5077147;28;19908;-61
2022/07/10 04:38:35;;;;;;;;;;;;;;;12.64;80.40;102626.00;5077213;28;19931;-61
2022/07/10 04:41:00;;;;;;;;;;;;;;;12.67;80.16;102631.91;5081801;28;19908;-61
2022/07/10 04:43:26;;;;;;;;;;;;;;;12.73;79.99;102627.88;5084918;28;19954;-61
2022/07/10 04:45:51;;;;;;;;;;;;;;;12.76;79.95;102632.91;5084423;28;19912;-60
2022/07/10 04:48:16;;;;;;;;;;;;;;;12.83;79.49;102630.50;5078444;28;20360;-61
2022/07/10 04:50:42;;;;;;;;;;;;;;;12.87;79.66;102626.56;5077304;28;20406;-61
2022/07/10 04:53:07;;;;;;;;;;;;;;;12.91;79.78;102609.31;5079678;28;19920;-61
2022/07/10 04:55:32;;;;;;;;;;;;;;;12.96;80.51;102615.88;5079888;28;19916;-61
2022/07/10 04:57:57;;;;;;;;;;;;;;;13.01;80.16;102619.00;5078624;28;19923;-61
2022/07/10 05:00:23;;;;;;;;;;;;;;;13.07;80.35;102622.91;5081792;28;19931;-61
2022/07/10 05:02:48;;;;;;;;;;;;;;;13.13;80.10;102619.66;5084279;28;19912;-61
2022/07/10 05:05:13;;;;;;;;;;;;;;;13.19;80.31;102632.44;5081363;28;19927;-61
2022/07/10 05:07:38;;;;;;;;;;;;;;;13.27;80.17;102637.06;5080452;28;19934;-61
2022/07/10 05:10:04;;;;;;;;;;;;;;;13.36;79.96;102640.72;5077518;28;20430;-61
2022/07/10 05:12:29;;;;;;;;;;;;;;;13.45;80.08;102643.34;5079430;28;19912;-61
2022/07/10 05:14:55;;;;;;;;;;;;;;;13.52;80.08;102635.59;5081480;28;19994;-61
2022/07/10 05:17:20;;;;;;;;;;;;;;;13.58;79.97;102637.66;5081023;28;19912;-61
2022/07/10 05:19:45;;;;;;;;;;;;;;;13.63;79.91;102627.41;5082013;28;19960;-61
2022/07/10 05:22:10;;;;;;;;;;;;;;;13.68;79.39;102618.97;5077063;28;20379;-61
2022/07/10 05:24:36;;;;;;;;;;;;;;;13.75;79.40;102628.91;5079843;28;19920;-61
2022/07/10 05:27:01;;;;;;;;;;;;;;;13.82;79.17;102627.31;5084434;28;20020;-60
2022/07/10 05:29:27;;;;;;;;;;;;;;;13.89;79.08;102632.91;5078616;28;19916;-61
2022/07/10 05:31:52;;;;;;;;;;;;;;;13.97;79.13;102632.16;5082472;28;20623;-61
2022/07/10 05:34:17;;;;;;;;;;;;;;;14.04;79.21;102631.41;5078651;28;19970;-61
2022/07/10 05:36:42;;;;;;;;;;;;;;;14.11;78.57;102631.66;5076678;28;20003;-61
2022/07/10 05:39:07;;;;;;;;;;;;;;;14.20;78.40;102628.94;5084129;28;20367;-61
2022/07/10 05:41:32;;;;;;;;;;;;;;;14.27;78.52;102627.34;5078834;28;19988;-61
2022/07/10 05:43:58;;;;;;;;;;;;;;;14.38;78.62;102638.78;5076710;28;19920;-60
2022/07/10 05:46:24;;;;;;;;;;;;;;;14.47;78.49;102644.13;5083146;28;19912;-61
2022/07/10 05:48:49;;;;;;;;;;;;;;;14.57;78.07;102634.19;5086050;28;19912;-61
2022/07/10 05:51:14;;;;;;;;;;;;;;;14.67;77.72;102635.94;5085616;28;19912;-61
2022/07/10 05:53:39;;;;;;;;;;;;;;;14.79;77.67;102637.41;5086488;28;19912;-61
2022/07/10 05:56:04;;;;;;;;;;;;;;;14.91;77.34;102633.47;5086286;28;20351;-61
2022/07/10 05:58:30;;;;;;;;;;;;;;;15.02;77.25;102635.88;5086280;28;20011;-61
2022/07/10 06:00:55;;;;;;;;;;;;;;;15.11;77.03;102634.97;5086759;28;20031;-61
2022/07/10 06:03:21;;;;;;;;;;;;;;;15.22;76.32;102633.03;5079949;28;19947;-60
2022/07/10 06:05:47;;;;;;;;;;;;;;;15.32;75.80;102626.56;5081147;28;19923;-61
2022/07/10 06:08:12;;;;;;;;;;;;;;;15.42;75.35;102629.16;5083867;28;19928;-61
2022/07/10 06:10:39;;;;;;;;;;;;;;;15.49;75.32;102622.16;5077640;28;19919;-61
2022/07/10 06:13:04;;;;;;;;;;;;;;;15.66;74.81;102618.59;5084196;28;20375;-61
2022/07/10 06:15:29;;;;;;;;;;;;;;;15.78;74.62;102622.66;5085874;28;19922;-62
2022/07/10 06:17:57;;;;;;;;;;;;;;;15.89;74.17;102618.00;5090499;28;19919;-61
2022/07/10 06:20:23;;;;;;;;;;;;;;;15.97;73.22;102620.72;5083246;28;19923;-61
2022/07/10 06:22:48;;;;;;;;;;;;;;;16.02;72.62;102624.59;5089251;28;19912;-61
2022/07/10 06:25:13;;;;;;;;;;;;;;;16.09;72.78;102625.59;5086998;28;20359;-60
2022/07/10 06:27:39;;;;;;;;;;;;;;;16.20;72.73;102618.28;5087513;28;20399;-61
2022/07/10 06:30:05;;;;;;;;;;;;;;;16.29;72.30;102618.13;5082902;28;19969;-61
2022/07/10 06:32:30;;;;;;;;;;;;;;;16.34;71.48;102623.81;5080760;28;19918;-61
2022/07/10 06:34:55;;;;;;;;;;;;;;;16.34;71.40;102621.16;5084507;28;20002;-61
2022/07/10 06:37:21;;;;;;;;;;;;;;;16.40;71.55;102625.00;5081366;28;19951;-61
2022/07/10 06:39:47;;;;;;;;;;;;;;;16.50;71.52;102622.19;5085995;28;19916;-61
2022/07/10 06:42:12;;;;;;;;;;;;;;;16.58;71.81;102625.72;5085862;28;19919;-61
2022/07/10 06:44:38;;;;;;;;;;;;;;;16.64;71.00;102627.72;5088888;28;19908;-61
2022/07/10 06:49:48;;;;;;;;;;;;;;;16.81;70.75;102625.09;5087863;28;19978;-61
2022/07/10 06:52:13;;;;;;;;;;;;;;;16.82;70.33;102622.22;5088766;28;20117;-61
2022/07/10 06:54:38;;;;;;;;;;;;;;;16.85;70.32;102615.69;5068218;28;20027;-61
2022/07/10 06:57:05;;;;;;;;;;;;;;;16.82;69.49;102618.72;5089446;28;19919;-61
2022/07/10 06:59:30;;;;;;;;;;;;;;;16.78;69.31;102620.06;5086650;28;19974;-61
2022/07/10 07:01:55;;;;;;;;;;;;;;;16.77;69.09;102624.59;5080808;28;20335;-62
2022/07/10 07:04:20;;;;;;;;;;;;;;;16.79;69.28;102617.22;5084102;28;20707;-61
2022/07/10 07:06:45;;;;;;;;;;;;;;;16.85;69.29;102618.38;5086564;28;19912;-61
2022/07/10 07:09:11;;;;;;;;;;;;;;;16.90;69.13;102624.91;5082003;28;20340;-61
2022/07/10 07:11:36;;;;;;;;;;;;;;;16.93;69.17;102626.41;5085207;28;19920;-60
2022/07/10 07:14:01;;;;;;;;;;;;;;;16.94;68.86;102622.72;5086771;28;20007;-61
2022/07/10 07:16:41;;;;;;;;;;;;;;;16.98;68.81;102627.56;5087763;28;20331;-61
2022/07/10 07:19:07;;;;;;;;;;;;;;;16.99;68.50;102633.78;5086403;28;20057;-61
2022/07/10 07:24:18;;;;;;;;;;;;;;;17.06;68.41;102626.75;5088370;28;20400;-61
2022/07/10 07:26:43;;;;;;;;;;;;;;;17.08;68.42;102632.78;5088221;28;20171;-61
2022/07/10 07:29:09;;;;;;;;;;;;;;;17.15;68.31;102641.00;5082671;28;20205;-61
2022/07/10 07:31:34;;;;;;;;;;;;;;;17.24;68.41;102643.47;5079883;28;19916;-61
2022/07/10 07:33:59;;;;;;;;;;;;;;;17.29;67.74;102632.22;5078268;28;20306;-61
2022/07/10 07:36:25;;;;;;;;;;;;;;;17.28;67.46;102635.91;5089041;28;19931;-61
2022/07/10 07:38:52;;;;;;;;;;;;;;;17.29;67.82;102629.53;5087038;28;20010;-61
2022/07/10 07:41:18;;;;;;;;;;;;;;;17.34;67.54;102632.53;5081742;28;20341;-61
2022/07/10 07:43:43;;;;;;;;;;;;;;;17.39;67.53;102640.97;5082454;28;19911;-61
2022/07/10 07:46:09;;;;;;;;;;;;;;;17.41;67.52;102635.41;5082310;28;19920;-61
2022/07/10 07:48:34;;;;;;;;;;;;;;;17.41;67.56;102635.41;5079952;28;20019;-62
2022/07/10 07:51:00;;;;;;;;;;;;;;;17.43;67.14;102639.59;5082767;28;20011;-61
2022/07/10 07:53:25;;;;;;;;;;;;;;;17.42;67.30;102635.25;5083657;28;19915;-61
2022/07/10 07:55:50;;;;;;;;;;;;;;;17.44;66.91;102643.97;5080919;28;19919;-60
2022/07/10 07:58:15;;;;;;;;;;;;;;;17.38;66.76;102628.53;5080930;28;20402;-61
2022/07/10 08:00:41;;;;;;;;;;;;;;;17.44;66.66;102635.91;5084383;28;20015;-61
2022/07/10 08:03:08;;;;;;;;;;;;;;;17.47;66.45;102635.56;5080856;28;19915;-61
2022/07/10 08:05:33;;;;;;;;;;;;;;;17.51;66.45;102642.25;5082193;28;19912;-62
2022/07/10 08:08:04;;;;;;;;;;;;;;;17.55;66.41;102645.44;5080341;28;19920;-61
2022/07/10 08:10:29;;;;;;;;;;;;;;;17.61;66.71;102634.00;5086513;28;19912;-61
2022/07/10 08:12:54;;;;;;;;;;;;;;;17.68;66.29;102631.50;5081742;28;19942;-61
2022/07/10 08:15:23;;;;;;;;;;;;;;;17.74;66.14;102639.69;5087386;28;20400;-61
2022/07/10 08:17:52;;;;;;;;;;;;;;;17.76;66.18;102632.28;5087918;28;19919;-62
2022/07/10 08:20:17;;;;;;;;;;;;;;;17.79;66.12;102631.09;5084214;28;20469;-61
2022/07/10 08:22:43;;;;;;;;;;;;;;;17.83;66.12;102632.44;5079547;28;19915;-61
2022/07/10 08:25:09;;;;;;;;;;;;;;;17.84;65.82;102629.56;5087005;28;19908;-61
2022/07/10 08:27:34;;;;;;;;;;;;;;;17.85;65.95;102630.41;5083420;28;19912;-61
2022/07/10 08:30:00;;;;;;;;;;;;;;;17.84;65.69;102631.41;5086718;28;20299;-61
2022/07/10 08:32:27;;;;;;;;;;;;;;;17.80;65.73;102633.63;5081069;28;19912;-61
2022/07/10 08:34:52;;;;;;;;;;;;;;;17.77;65.83;102633.97;5080400;28;19985;-61
2022/07/10 08:37:19;;;;;;;;;;;;;;;17.76;65.87;102631.47;5081688;28;20032;-61
2022/07/10 08:39:44;;;;;;;;;;;;;;;17.76;65.74;102626.94;5080100;28;19916;-61
2022/07/10 08:42:10;;;;;;;;;;;;;;;17.78;65.64;102619.53;5081799;28;19920;-61
2022/07/10 08:44:35;;;;;;;;;;;;;;;17.86;65.92;102624.00;5080055;28;20597;-62
2022/07/10 08:47:02;;;;;;;;;;;;;;;17.92;65.77;102628.69;5079460;28;19912;-61
2022/07/10 08:49:28;;;;;;;;;;;;;;;17.88;65.32;102630.06;5076878;28;20512;-61
2022/07/10 08:51:59;;;;;;;;;;;;;;;17.85;65.40;102633.09;5083737;28;19921;-61
2022/07/10 08:54:26;;;;;;;;;;;;;;;17.84;65.41;102626.88;5076881;28;19923;-61
2022/07/10 08:56:52;;;;;;;;;;;;;;;17.83;65.77;102638.66;5079465;28;20006;-61
2022/07/10 08:59:17;;;;;;;;;;;;;;;17.86;65.78;102635.59;5083588;28;20335;-61
2022/07/10 09:01:43;;;;;;;;;;;;;;;17.93;65.92;102633.09;5079428;28;20512;-61
2022/07/10 09:04:16;;;;;;;;;;;;;;;18.00;65.55;102641.28;5081021;28;19926;-61
2022/07/10 09:06:41;;;;;;;;;;;;;;;18.01;65.75;102641.09;5085559;28;19964;-62
2022/07/10 09:09:07;;;;;;;;;;;;;;;17.98;65.51;102633.38;5085381;28;20326;-61
2022/07/10 09:11:33;;;;;;;;;;;;;;;17.96;65.32;102627.34;5082108;28;20193;-61
2022/07/10 09:14:00;;;;;;;;;;;;;;;18.01;65.62;102633.03;5086310;28;19934;-61
2022/07/10 09:16:27;;;;;;;;;;;;;;;18.02;65.29;102632.00;5086872;28;19915;-61
2022/07/10 09:18:53;;;;;;;;;;;;;;;18.02;65.35;102623.94;5079996;28;20452;-61
2022/07/10 09:21:18;;;;;;;;;;;;;;;18.03;65.61;102617.56;5087184;28;19953;-62
2022/07/10 09:23:44;;;;;;;;;;;;;;;18.15;65.54;102626.88;5087737;28;20397;-61
2022/07/10 09:26:09;;;;;;;;;;;;;;;18.20;65.81;102613.75;5087981;28;19912;-61
2022/07/10 09:28:34;;;;;;;;;;;;;;;18.30;65.51;102618.06;5088870;28;19947;-61
2022/07/10 09:30:59;;;;;;;;;;;;;;;18.35;65.34;102618.38;5089738;28;20280;-61
2022/07/10 09:33:33;;;;;;;;;;;;;;;18.45;65.36;102610.91;5090966;28;19995;-61
2022/07/10 09:36:11;;;;;;;;;;;;;;;18.47;64.96;102620.47;5083165;28;19951;-60
2022/07/10 09:38:42;;;;;;;;;;;;;;;18.44;64.68;102611.91;5091385;28;19920;-61
2022/07/10 09:41:24;;;;;;;;;;;;;;;18.44;64.83;102607.38;5082797;28;19912;-63
2022/07/10 09:43:49;;;;;;;;;;;;;;;18.50;65.12;102605.81;5083047;28;20387;-61
2022/07/10 09:46:15;;;;;;;;;;;;;;;18.71;65.06;102606.00;5080720;28;19919;-62
2022/07/10 09:48:41;;;;;;;;;;;;;;;18.93;65.18;102603.47;5088612;28;19919;-61
2022/07/10 09:51:08;;;;;;;;;;;;;;;19.15;64.81;102607.97;5085626;28;20464;-61
2022/07/10 09:53:36;;;;;;;;;;;;;;;19.25;64.41;102599.63;5080739;28;19920;-61
2022/07/10 09:56:02;;;;;;;;;;;;;;;19.34;63.97;102602.03;5086516;28;19919;-61
2022/07/10 09:58:30;;;;;;;;;;;;;;;19.41;63.91;102597.59;5089416;28;19916;-62
2022/07/10 10:00:57;;;;;;;;;;;;;;;19.52;63.25;102593.56;5088090;28;20029;-61
2022/07/10 10:03:24;;;;;;;;;;;;;;;19.53;62.54;102595.28;5090405;28;19926;-61
2022/07/10 10:05:53;;;;;;;;;;;;;;;19.50;62.57;102596.47;5090422;28;19915;-61
2022/07/10 10:08:24;;;;;;;;;;;;;;;19.52;62.62;102598.97;5084657;28;19913;-61
2022/07/10 10:10:50;;;;;;;;;;;;;;;19.51;62.15;102600.00;5089235;28;19919;-61
2022/07/10 10:13:19;;;;;;;;;;;;;;;19.42;62.20;102598.44;5088661;28;19908;-61
2022/07/10 10:15:47;;;;;;;;;;;;;;;19.41;62.29;102597.59;5088023;28;20006;-61
2022/07/10 10:18:12;;;;;;;;;;;;;;;19.49;62.65;102584.00;5089026;28;20452;-61
2022/07/10 10:20:41;;;;;;;;;;;;;;;19.65;62.46;102587.53;5089284;28;20018;-61
2022/07/10 10:23:12;;;;;;;;;;;;;;;19.85;62.62;102593.19;5089770;28;19919;-61
2022/07/10 10:25:37;;;;;;;;;;;;;;;20.04;62.54;102589.91;5089016;28;19919;-61
2022/07/10 10:28:04;;;;;;;;;;;;;;;20.22;61.86;102579.50;5091145;28;20003;-61
2022/07/10 10:30:31;;;;;;;;;;;;;;;20.33;61.26;102586.25;5085576;28;19980;-61
2022/07/10 10:32:56;;;;;;;;;;;;;;;20.36;60.83;102583.19;5082550;28;19912;-61
2022/07/10 10:35:41;;;;;;;;;;;;;;;20.38;60.71;102589.22;5089114;28;19919;-62
2022/07/10 10:38:06;;;;;;;;;;;;;;;20.40;60.37;102585.31;5089954;28;19915;-61
2022/07/10 10:40:34;;;;;;;;;;;;;;;20.40;59.82;102581.78;5089186;28;20435;-61
2022/07/10 10:43:16;;;;;;;;;;;;;;;20.41;59.47;102580.75;5089611;28;19908;-61
2022/07/10 10:45:42;;;;;;;;;;;;;;;20.52;59.70;102574.84;5088868;28;20006;-61
2022/07/10 10:48:08;;;;;;;;;;;;;;;20.61;59.32;102581.78;5089009;28;20031;-62
2022/07/10 10:50:54;;;;;;;;;;;;;;;20.57;59.29;102576.97;5089222;28;19918;-60
2022/07/10 10:53:26;;;;;;;;;;;;;;;20.60;58.64;102587.38;5086304;28;20032;-61
2022/07/10 10:56:03;;;;;;;;;;;;;;;20.45;58.59;102576.66;5089135;28;19915;-61
2022/07/10 10:58:39;;;;;;;;;;;;;;;20.36;59.08;102572.38;5088519;28;19908;-61
2022/07/10 11:01:05;;;;;;;;;;;;;;;20.47;59.47;102574.59;5087781;28;19923;-61
2022/07/10 11:03:30;;;;;;;;;;;;;;;20.61;59.16;102573.69;5089185;28;19911;-61
2022/07/10 11:05:55;;;;;;;;;;;;;;;20.70;58.83;102568.97;5089555;28;19908;-62
2022/07/10 11:08:37;;;;;;;;;;;;;;;20.69;58.61;102575.41;5087812;28;19908;-61
2022/07/10 11:11:21;;;;;;;;;;;;;;;20.69;57.73;102575.41;5071000;28;19912;-61
2022/07/10 11:13:47;;;;;;;;;;;;;;;20.64;57.53;102576.00;5086688;28;19947;-61
2022/07/10 11:16:12;;;;;;;;;;;;;;;20.57;57.92;102567.00;5090759;28;19973;-62
2022/07/10 11:18:39;;;;;;;;;;;;;;;20.65;57.95;102569.56;5088379;28;20414;-62
2022/07/10 11:21:09;;;;;;;;;;;;;;;20.71;58.12;102568.78;5089229;28;19914;-62
2022/07/10 11:23:53;;;;;;;;;;;;;;;20.73;57.61;102566.72;5088402;28;19923;-61
2022/07/10 11:26:24;;;;;;;;;;;;;;;20.59;57.29;102567.66;5088813;28;19918;-62
2022/07/10 11:28:51;;;;;;;;;;;;;;;20.55;57.88;102565.53;5087878;28;19915;-62
2022/07/10 11:31:16;;;;;;;;;;;;;;;20.53;57.93;102564.88;5088260;28;19916;-61
2022/07/10 11:33:43;;;;;;;;;;;;;;;20.55;58.60;102560.16;5086413;28;20010;-60
2022/07/10 11:36:13;;;;;;;;;;;;;;;20.68;58.60;102558.38;5089244;28;19908;-61
2022/07/10 11:38:38;;;;;;;;;;;;;;;20.77;58.22;102550.94;5085147;28;19916;-62
2022/07/10 11:41:04;;;;;;;;;;;;;;;20.84;58.16;102561.81;5086292;28;19908;-61
2022/07/10 11:43:29;;;;;;;;;;;;;;;20.89;58.38;102564.75;5088932;28;19958;-61
2022/07/10 11:45:59;;;;;;;;;;;;;;;20.97;58.16;102556.50;5087112;28;19912;-61
2022/07/10 11:48:24;;;;;;;;;;;;;;;21.04;58.29;102554.69;5089602;28;19914;-62
2022/07/10 11:50:49;;;;;;;;;;;;;;;21.06;57.85;102560.72;5084478;28;19999;-61
2022/07/10 11:53:21;;;;;;;;;;;;;;;21.05;57.70;102556.34;5089420;28;19908;-62
2022/07/10 11:55:49;;;;;;;;;;;;;;;21.01;57.33;102560.47;5087077;28;20167;-61
2022/07/10 11:58:17;;;;;;;;;;;;;;;20.98;57.13;102561.72;5087768;28;19981;-61
2022/07/10 12:00:43;;;;;;;;;;;;;;;21.01;57.25;102552.38;5088936;28;19919;-61
2022/07/10 12:03:20;;;;;;;;;;;;;;;21.06;57.19;102552.59;5083171;28;19908;-61
2022/07/10 12:05:47;;;;;;;;;;;;;;;21.14;57.12;102551.63;5081891;28;19943;-61
2022/07/10 12:08:13;;;;;;;;;;;;;;;21.04;56.99;102551.97;5083441;28;21371;-62
2022/07/10 12:10:41;;;;;;;;;;;;;;;20.99;56.90;102555.28;5087026;28;20424;-61
2022/07/10 12:13:13;;;;;;;;;;;;;;;20.98;56.84;102553.59;5086752;28;20002;-61
2022/07/10 12:15:38;;;;;;;;;;;;;;;21.12;57.30;102551.00;5088920;28;19908;-61
2022/07/10 12:18:04;;;;;;;;;;;;;;;21.23;56.78;102548.59;5087900;28;19912;-61
2022/07/10 12:20:30;;;;;;;;;;;;;;;21.32;57.12;102554.66;5087718;28;20007;-61
2022/07/10 12:22:55;;;;;;;;;;;;;;;21.47;56.58;102555.38;5086733;28;19995;-62
2022/07/10 12:25:21;;;;;;;;;;;;;;;21.52;55.58;102552.91;5087138;28;19927;-61
2022/07/10 12:27:46;;;;;;;;;;;;;;;21.42;55.26;102549.75;5088985;28;19914;-61
2022/07/10 12:30:11;;;;;;;;;;;;;;;21.39;55.57;102554.69;5089058;28;19978;-61
2022/07/10 12:32:37;;;;;;;;;;;;;;;21.48;56.24;102546.22;5075636;28;20043;-61
2022/07/10 12:35:02;;;;;;;;;;;;;;;21.64;56.06;102555.84;5087080;28;19923;-62
2022/07/10 12:37:28;;;;;;;;;;;;;;;21.65;54.97;102557.50;5087426;28;19912;-62
2022/07/10 12:39:53;;;;;;;;;;;;;;;21.57;54.89;102550.41;5087747;28;19927;-62
2022/07/10 12:42:28;;;;;;;;;;;;;;;21.57;54.82;102541.47;5085851;28;19957;-62